createdAt,value
2022-10-17T00:01:06.832Z,102475.50
2022-10-17T00:03:37.880Z,102485.09
2022-10-17T00:06:13.287Z,102489.53
2022-10-17T00:08:41.905Z,102489.53
2022-10-17T00:11:15.502Z,102483.56
2022-10-17T00:13:44.179Z,102489.63
2022-10-17T00:16:14.251Z,102481.75
2022-10-17T00:18:43.514Z,102477.41
2022-10-17T00:21:16.916Z,102481.03
2022-10-17T00:23:50.542Z,102483.75
2022-10-17T00:26:21.647Z,102487.94
2022-10-17T00:28:52.976Z,102489.63
2022-10-17T00:31:25.474Z,102481.78
2022-10-17T00:33:55.097Z,102485.13
2022-10-17T00:36:24.912Z,102484.91
2022-10-17T00:38:54.824Z,102478.69
2022-10-17T00:41:26.673Z,102480.31
2022-10-17T00:43:58.535Z,102482.13
2022-10-17T00:46:27.886Z,102480.06
2022-10-17T00:48:57.214Z,102471.53
2022-10-17T00:51:30.739Z,102475.22
2022-10-17T00:53:59.261Z,102477.22
2022-10-17T00:56:28.523Z,102488.81
2022-10-17T00:58:57.139Z,102477.63
2022-10-17T01:01:24.919Z,102482.13
2022-10-17T01:03:52.622Z,102493.38
2022-10-17T01:06:20.381Z,102494.16
2022-10-17T01:08:48.128Z,102497.50
2022-10-17T01:11:31.617Z,102503.53
2022-10-17T01:14:06.285Z,102500.94
2022-10-17T01:16:43.074Z,102507.00
2022-10-17T01:19:42.067Z,102513.00
2022-10-17T01:22:15.107Z,102514.75
2022-10-17T01:24:56.106Z,102505.94
2022-10-17T01:27:38.371Z,102511.16
2022-10-17T01:30:42.613Z,102509.25
2022-10-17T01:33:18.137Z,102510.25
2022-10-17T01:35:53.278Z,102512.75
2022-10-17T01:38:24.472Z,102507.34
2022-10-17T01:41:00.583Z,102515.06
2022-10-17T01:43:35.566Z,102511.63
2022-10-17T01:46:12.236Z,102508.00
2022-10-17T01:48:45.036Z,102514.19
2022-10-17T01:51:17.977Z,102515.06
2022-10-17T01:53:52.401Z,102513.22
2022-10-17T01:56:22.351Z,102511.50
2022-10-17T01:58:53.963Z,102508.00
2022-10-17T02:01:29.266Z,102523.88
2022-10-17T02:03:59.880Z,102519.59
2022-10-17T02:06:27.982Z,102519.53
2022-10-17T02:08:55.666Z,102521.94
2022-10-17T02:11:26.263Z,102509.69
2022-10-17T02:16:56.722Z,102516.81
2022-10-17T02:19:48.531Z,102511.25
2022-10-17T02:22:20.700Z,102504.84
2022-10-17T02:24:52.598Z,102512.06
2022-10-17T02:27:24.989Z,102519.63
2022-10-17T02:29:59.041Z,102520.66
2022-10-17T02:32:34.568Z,102527.00
2022-10-17T02:35:05.827Z,102523.81
2022-10-17T02:37:35.095Z,102520.41
2022-10-17T02:40:07.005Z,102521.31
2022-10-17T02:42:35.910Z,102522.22
2022-10-17T02:45:04.958Z,102521.25
2022-10-17T02:47:39.447Z,102521.22
2022-10-17T02:50:07.781Z,102522.91
2022-10-17T02:52:43.922Z,102513.50
2022-10-17T02:55:17.312Z,102523.69
2022-10-17T02:57:48.786Z,102518.38
2022-10-17T03:00:17.738Z,102526.91
2022-10-17T03:02:49.309Z,102522.69
2022-10-17T03:05:17.877Z,102522.69
2022-10-17T03:07:45.599Z,102512.72
2022-10-17T03:10:13.596Z,102515.47
2022-10-17T03:12:43.383Z,102526.97
2022-10-17T03:15:13.172Z,102528.94
2022-10-17T03:17:40.814Z,102531.53
2022-10-17T03:20:10.670Z,102529.09
2022-10-17T03:22:38.451Z,102529.22
2022-10-17T03:25:06.666Z,102531.47
2022-10-17T03:27:34.220Z,102533.97
2022-10-17T03:30:02.240Z,102537.34
2022-10-17T03:32:30.109Z,102547.75
2022-10-17T03:34:57.624Z,102543.47
2022-10-17T03:37:26.888Z,102551.97
2022-10-17T03:39:54.599Z,102551.63
2022-10-17T03:42:22.251Z,102554.13
2022-10-17T03:44:50.786Z,102557.63
2022-10-17T03:47:18.353Z,102572.31
2022-10-17T03:49:47.187Z,102569.66
2022-10-17T03:52:15.246Z,102570.41
2022-10-17T03:54:44.285Z,102573.91
2022-10-17T03:57:11.865Z,102573.81
2022-10-17T03:59:39.832Z,102584.56
2022-10-17T04:02:07.376Z,102585.41
2022-10-17T04:04:35.554Z,102592.34
2022-10-17T04:07:03.552Z,102599.38
2022-10-17T04:09:33.247Z,102598.56
2022-10-17T04:12:02.472Z,102608.16
2022-10-17T04:14:30.267Z,102602.75
2022-10-17T04:16:58.584Z,102605.47
2022-10-17T04:19:26.489Z,102605.66
2022-10-17T04:21:54.340Z,102615.16
2022-10-17T04:24:22.416Z,102614.50
2022-10-17T04:26:52.844Z,102613.69
2022-10-17T04:29:24.452Z,102614.66
2022-10-17T04:31:52.460Z,102619.97
2022-10-17T04:34:20.073Z,102622.72
2022-10-17T04:36:48.246Z,102626.34
2022-10-17T04:39:15.778Z,102613.44
2022-10-17T04:41:43.369Z,102620.34
2022-10-17T04:44:11.253Z,102623.97
2022-10-17T04:46:40.518Z,102619.72
2022-10-17T04:49:08.525Z,102635.44
2022-10-17T04:51:36.221Z,102630.22
2022-10-17T04:54:05.680Z,102625.03
2022-10-17T04:56:34.862Z,102641.47
2022-10-17T04:59:03.039Z,102642.16
2022-10-17T05:01:30.825Z,102640.31
2022-10-17T05:03:59.974Z,102641.03
2022-10-17T05:06:27.720Z,102645.25
2022-10-17T05:08:55.490Z,102654.16
2022-10-17T05:11:24.612Z,102654.31
2022-10-17T05:13:56.914Z,102656.16
2022-10-17T05:16:25.348Z,102662.31
2022-10-17T05:18:56.096Z,102664.16
2022-10-17T05:21:27.207Z,102666.16
2022-10-17T05:23:54.948Z,102671.88
2022-10-17T05:26:23.248Z,102676.63
2022-10-17T05:28:52.149Z,102672.81
2022-10-17T05:31:19.751Z,102670.47
2022-10-17T05:33:49.475Z,102670.66
2022-10-17T05:36:17.300Z,102677.91
2022-10-17T05:38:49.378Z,102677.38
2022-10-17T05:41:18.695Z,102679.59
2022-10-17T05:43:47.711Z,102684.34
2022-10-17T05:46:15.551Z,102682.94
2022-10-17T05:48:43.153Z,102685.88
2022-10-17T05:51:11.184Z,102679.97
2022-10-17T05:53:40.911Z,102688.06
2022-10-17T05:56:11.926Z,102684.81
2022-10-17T05:59:00.674Z,102684.22
2022-10-17T06:01:29.275Z,102687.06
2022-10-17T06:03:57.102Z,102689.84
2022-10-17T06:06:26.879Z,102696.97
2022-10-17T06:08:54.722Z,102697.19
2022-10-17T06:11:23.757Z,102692.97
2022-10-17T06:13:51.313Z,102701.00
2022-10-17T06:16:19.114Z,102702.84
2022-10-17T06:21:23.710Z,102707.38
2022-10-17T06:23:52.096Z,102712.72
2022-10-17T06:26:20.132Z,102711.97
2022-10-17T06:28:49.492Z,102709.47
2022-10-17T06:31:17.621Z,102703.41
2022-10-17T06:33:45.305Z,102710.50
2022-10-17T06:36:17.854Z,102709.72
2022-10-17T06:38:46.387Z,102717.66
2022-10-17T06:41:16.190Z,102718.59
2022-10-17T06:43:46.768Z,102714.25
2022-10-17T06:46:17.140Z,102721.31
2022-10-17T06:48:45.214Z,102722.25
2022-10-17T06:51:13.459Z,102717.03
2022-10-17T06:53:42.235Z,102719.69
2022-10-17T06:56:10.589Z,102720.59
2022-10-17T06:58:40.155Z,102725.84
2022-10-17T07:01:09.896Z,102718.88
2022-10-17T07:03:40.212Z,102717.09
2022-10-17T07:06:08.266Z,102717.13
2022-10-17T07:08:36.318Z,102717.13
2022-10-17T07:11:10.474Z,102715.34
2022-10-17T07:13:39.302Z,102717.94
2022-10-17T07:16:07.534Z,102723.19
2022-10-17T07:18:36.192Z,102716.16
2022-10-17T07:21:05.963Z,102716.94
2022-10-17T07:23:35.573Z,102723.09
2022-10-17T07:26:05.988Z,102719.56
2022-10-17T07:28:34.896Z,102726.50
2022-10-17T07:31:06.957Z,102719.41
2022-10-17T07:33:37.396Z,102717.59
2022-10-17T07:36:07.369Z,102713.97
2022-10-17T07:38:36.339Z,102727.09
2022-10-17T07:41:05.982Z,102721.72
2022-10-17T07:43:35.585Z,102730.44
2022-10-17T07:46:05.317Z,102720.69
2022-10-17T07:48:33.025Z,102721.53
2022-10-17T07:51:03.926Z,102721.38
2022-10-17T07:53:34.862Z,102723.97
2022-10-17T07:56:05.011Z,102725.63
2022-10-17T07:58:33.132Z,102730.75
2022-10-17T08:03:30.582Z,102725.31
2022-10-17T08:05:58.779Z,102735.69
2022-10-17T08:08:27.443Z,102735.59
2022-10-17T08:11:03.000Z,102735.47
2022-10-17T08:13:31.895Z,102729.31
2022-10-17T08:16:00.516Z,102730.94
2022-10-17T08:18:28.600Z,102741.41
2022-10-17T08:21:00.575Z,102740.44
2022-10-17T08:23:29.136Z,102734.00
2022-10-17T08:26:01.351Z,102741.78
2022-10-17T08:28:29.675Z,102735.59
2022-10-17T08:31:03.298Z,102733.75
2022-10-17T08:33:31.146Z,102737.16
2022-10-17T08:35:59.508Z,102737.06
2022-10-17T08:38:34.701Z,102731.84
2022-10-17T08:41:11.466Z,102740.47
2022-10-17T08:44:02.250Z,102740.38
2022-10-17T08:46:32.747Z,102744.69
2022-10-17T08:49:05.078Z,102741.16
2022-10-17T08:51:43.856Z,102747.19
2022-10-17T08:54:17.870Z,102745.41
2022-10-17T08:56:50.871Z,102747.13
2022-10-17T08:59:23.210Z,102746.97
2022-10-17T09:01:58.862Z,102748.63
2022-10-17T09:04:58.383Z,102734.47
2022-10-17T09:07:37.214Z,102749.19
2022-10-17T09:10:13.814Z,102742.78
2022-10-17T09:12:51.733Z,102739.31
2022-10-17T09:15:52.718Z,102743.47
2022-10-17T09:18:26.103Z,102740.88
2022-10-17T09:20:55.831Z,102732.09
2022-10-17T09:23:27.921Z,102744.38
2022-10-17T09:25:58.392Z,102733.69
2022-10-17T09:28:32.495Z,102739.69
2022-10-17T09:31:03.179Z,102736.78
2022-10-17T09:33:53.422Z,102742.00
2022-10-17T09:36:24.598Z,102736.72
2022-10-17T09:38:54.798Z,102732.06
2022-10-17T09:41:44.175Z,102733.88
2022-10-17T09:44:18.391Z,102735.63
2022-10-17T09:47:02.009Z,102744.38
2022-10-17T09:49:35.771Z,102744.25
2022-10-17T09:52:06.432Z,102752.44
2022-10-17T09:54:42.379Z,102742.75
2022-10-17T09:57:11.889Z,102748.56
2022-10-17T09:59:44.390Z,102747.75
2022-10-17T10:02:20.742Z,102739.00
2022-10-17T10:05:05.555Z,102734.47
2022-10-17T10:07:35.798Z,102737.69
2022-10-17T10:10:07.631Z,102736.38
2022-10-17T10:12:39.713Z,102734.72
2022-10-17T10:15:34.709Z,102730.38
2022-10-17T10:18:02.625Z,102729.50
2022-10-17T10:20:34.278Z,102720.56
2022-10-17T10:23:17.489Z,102721.53
2022-10-17T10:25:58.106Z,102720.56
2022-10-17T10:28:29.682Z,102715.19
2022-10-17T10:31:01.499Z,102708.91
2022-10-17T10:33:30.775Z,102707.91
2022-10-17T10:36:00.228Z,102705.25
2022-10-17T10:38:30.205Z,102698.25
2022-10-17T10:41:03.603Z,102696.47
2022-10-17T10:43:36.652Z,102694.56
2022-10-17T10:46:06.910Z,102696.78
2022-10-17T10:48:36.844Z,102707.34
2022-10-17T10:51:08.133Z,102693.25
2022-10-17T10:53:44.472Z,102702.84
2022-10-17T10:56:18.406Z,102704.47
2022-10-17T10:58:55.497Z,102705.44
2022-10-17T11:01:31.556Z,102709.84
2022-10-17T11:04:13.660Z,102702.59
2022-10-17T11:06:44.360Z,102707.84
2022-10-17T11:09:23.678Z,102699.72
2022-10-17T11:11:56.324Z,102691.81
2022-10-17T11:14:34.865Z,102697.97
2022-10-17T11:17:12.611Z,102692.69
2022-10-17T11:19:45.916Z,102686.50
2022-10-17T11:22:17.047Z,102679.28
2022-10-17T11:24:53.171Z,102673.00
2022-10-17T11:27:21.818Z,102681.94
2022-10-17T11:29:49.565Z,102665.28
2022-10-17T11:32:24.100Z,102665.56
2022-10-17T11:34:55.720Z,102662.06
2022-10-17T11:37:26.973Z,102654.88
2022-10-17T11:40:00.105Z,102655.78
2022-10-17T11:42:33.131Z,102657.59
2022-10-17T11:45:06.182Z,102655.69
2022-10-17T11:47:41.623Z,102660.16
2022-10-17T11:53:13.273Z,102654.88
2022-10-17T11:55:42.298Z,102654.94
2022-10-17T11:58:30.305Z,102657.66
2022-10-17T12:01:07.081Z,102657.81
2022-10-17T12:03:51.885Z,102660.56
2022-10-17T12:06:35.827Z,102655.19
2022-10-17T12:09:12.677Z,102667.75
2022-10-17T12:11:49.058Z,102665.25
2022-10-17T12:14:42.336Z,102662.44
2022-10-17T12:17:28.927Z,102663.38
2022-10-17T12:20:25.459Z,102666.09
2022-10-17T12:22:55.034Z,102669.78
2022-10-17T12:25:24.651Z,102677.63
2022-10-17T12:28:14.157Z,102677.63
2022-10-17T12:30:58.182Z,102673.28
2022-10-17T12:33:38.166Z,102662.84
2022-10-17T12:36:45.363Z,102670.88
2022-10-17T12:39:48.536Z,102670.88
2022-10-17T12:42:48.443Z,102665.56
2022-10-17T12:45:46.577Z,102665.66
2022-10-17T12:48:34.208Z,102667.31
2022-10-17T12:53:59.537Z,102666.72
2022-10-17T12:56:37.507Z,102665.03
2022-10-17T12:59:13.832Z,102661.69
2022-10-17T13:01:46.346Z,102661.72
2022-10-17T13:04:14.560Z,102655.59
2022-10-17T13:06:48.375Z,102661.84
2022-10-17T13:09:23.007Z,102662.09
2022-10-17T13:11:52.759Z,102655.00
2022-10-17T13:14:22.926Z,102662.94
2022-10-17T13:16:53.090Z,102661.03
2022-10-17T13:19:23.771Z,102658.44
2022-10-17T13:21:53.962Z,102657.50
2022-10-17T13:24:28.829Z,102667.16
2022-10-17T13:26:57.363Z,102663.56
2022-10-17T13:29:26.699Z,102660.91
2022-10-17T13:31:56.449Z,102664.63
2022-10-17T13:34:26.315Z,102662.91
2022-10-17T13:36:57.482Z,102668.19
2022-10-17T13:39:44.756Z,102668.38
2022-10-17T13:42:22.858Z,102666.81
2022-10-17T13:44:50.925Z,102666.81
2022-10-17T13:47:23.476Z,102667.75
2022-10-17T13:49:55.274Z,102669.63
2022-10-17T13:52:28.323Z,102674.16
2022-10-17T13:55:07.637Z,102671.59
2022-10-17T13:57:35.379Z,102672.28
2022-10-17T14:00:10.039Z,102674.84
2022-10-17T14:02:41.466Z,102664.38
2022-10-17T14:05:17.245Z,102668.88
2022-10-17T14:10:44.783Z,102669.91
2022-10-17T14:13:22.155Z,102673.50
2022-10-17T14:15:51.471Z,102670.97
2022-10-17T14:18:24.109Z,102671.31
2022-10-17T14:21:34.312Z,102681.53
2022-10-17T14:23:44.147Z,102688.75
2022-10-17T14:26:15.363Z,102677.66
2022-10-17T14:28:45.674Z,102675.03
2022-10-17T14:31:22.284Z,102672.56
2022-10-17T14:33:51.408Z,102670.22
2022-10-17T14:36:20.452Z,102681.78
2022-10-17T14:38:52.432Z,102665.97
2022-10-17T14:41:42.002Z,102668.69
2022-10-17T14:44:19.291Z,102670.59
2022-10-17T14:46:51.019Z,102676.03
2022-10-17T14:49:25.327Z,102668.50
2022-10-17T14:52:27.428Z,102671.38
2022-10-17T14:54:57.610Z,102669.88
2022-10-17T14:57:43.145Z,102671.78
2022-10-17T15:00:15.169Z,102670.19
2022-10-17T15:02:43.469Z,102665.88
2022-10-17T15:05:13.584Z,102677.41
2022-10-17T15:07:42.620Z,102679.41
2022-10-17T15:10:31.000Z,102689.22
2022-10-17T15:13:15.849Z,102685.84
2022-10-17T15:15:49.096Z,102693.00
2022-10-17T15:18:18.343Z,102692.13
2022-10-17T15:20:46.467Z,102691.38
2022-10-17T15:23:14.049Z,102690.63
2022-10-17T15:25:45.027Z,102695.00
2022-10-17T15:28:13.518Z,102703.84
2022-10-17T15:30:42.075Z,102700.41
2022-10-17T15:33:09.817Z,102703.06
2022-10-17T15:35:37.611Z,102703.09
2022-10-17T15:38:07.226Z,102704.84
2022-10-17T15:40:35.235Z,102705.72
2022-10-17T15:43:04.381Z,102710.09
2022-10-17T15:45:33.650Z,102703.97
2022-10-17T15:48:06.112Z,102712.69
2022-10-17T15:50:33.642Z,102714.41
2022-10-17T15:53:01.247Z,102718.78
2022-10-17T15:55:29.178Z,102710.81
2022-10-17T15:57:57.081Z,102716.06
2022-10-17T16:00:26.148Z,102724.84
2022-10-17T16:02:54.045Z,102718.59
2022-10-17T16:05:24.097Z,102723.84
2022-10-17T16:07:53.308Z,102722.91
2022-10-17T16:10:22.294Z,102714.09
2022-10-17T16:12:50.396Z,102716.72
2022-10-17T16:15:23.744Z,102714.97
2022-10-17T16:17:53.893Z,102719.28
2022-10-17T16:20:23.164Z,102722.75
2022-10-17T16:22:51.969Z,102722.63
2022-10-17T16:25:23.710Z,102717.31
2022-10-17T16:27:54.393Z,102719.06
2022-10-17T16:30:23.589Z,102711.16
2022-10-17T16:32:54.211Z,102719.78
2022-10-17T16:35:23.962Z,102717.97
2022-10-17T16:37:54.014Z,102707.28
2022-10-17T16:40:21.968Z,102708.09
2022-10-17T16:42:49.630Z,102708.19
2022-10-17T16:45:19.823Z,102710.78
2022-10-17T16:47:47.755Z,102708.03
2022-10-17T16:50:18.101Z,102707.91
2022-10-17T16:52:46.066Z,102713.16
2022-10-17T16:55:13.621Z,102705.28
2022-10-17T17:00:13.115Z,102707.63
2022-10-17T17:02:41.335Z,102716.19
2022-10-17T17:05:09.947Z,102710.84
2022-10-17T17:07:39.556Z,102721.28
2022-10-17T17:10:07.960Z,102719.59
2022-10-17T17:12:37.058Z,102713.50
2022-10-17T17:15:05.622Z,102716.19
2022-10-17T17:17:48.793Z,102713.53
2022-10-17T17:20:18.176Z,102725.69
2022-10-17T17:22:47.752Z,102725.22
2022-10-17T17:25:15.702Z,102730.47
2022-10-17T17:27:43.420Z,102728.94
2022-10-17T17:30:12.076Z,102725.28
2022-10-17T17:32:40.156Z,102733.16
2022-10-17T17:35:09.184Z,102723.69
2022-10-17T17:37:37.701Z,102725.25
2022-10-17T17:40:08.526Z,102720.34
2022-10-17T17:42:36.769Z,102730.03
2022-10-17T17:45:05.452Z,102738.84
2022-10-17T17:47:33.533Z,102734.59
2022-10-17T17:50:03.640Z,102734.38
2022-10-17T17:52:31.904Z,102734.31
2022-10-17T17:54:59.711Z,102739.47
2022-10-17T17:57:30.740Z,102725.38
2022-10-17T17:59:58.354Z,102726.97
2022-10-17T18:02:26.013Z,102724.38
2022-10-17T18:04:54.321Z,102724.31
2022-10-17T18:07:22.284Z,102733.03
2022-10-17T18:09:52.647Z,102730.47
2022-10-17T18:12:21.117Z,102737.06
2022-10-17T18:14:50.119Z,102735.00
2022-10-17T18:17:18.602Z,102733.13
2022-10-17T18:19:47.210Z,102735.94
2022-10-17T18:22:15.300Z,102740.41
2022-10-17T18:24:43.299Z,102738.66
2022-10-17T18:27:11.038Z,102734.91
2022-10-17T18:29:38.802Z,102731.41
2022-10-17T18:32:08.066Z,102728.63
2022-10-17T18:34:36.101Z,102731.31
2022-10-17T18:37:03.834Z,102741.38
2022-10-17T18:39:31.579Z,102731.00
2022-10-17T18:41:59.305Z,102747.13
2022-10-17T18:44:27.047Z,102747.13
2022-10-17T18:46:55.751Z,102754.13
2022-10-17T18:49:26.597Z,102750.69
2022-10-17T18:51:54.210Z,102754.94
2022-10-17T18:54:22.240Z,102753.38
2022-10-17T18:56:52.385Z,102760.25
2022-10-17T18:59:20.992Z,102759.59
2022-10-17T19:01:49.003Z,102752.47
2022-10-17T19:04:18.134Z,102754.72
2022-10-17T19:06:47.114Z,102759.66
2022-10-17T19:09:15.025Z,102766.06
2022-10-17T19:11:43.307Z,102772.28
2022-10-17T19:14:15.079Z,102775.69
2022-10-17T19:16:49.168Z,102772.09
2022-10-17T19:19:19.928Z,102777.50
2022-10-17T19:21:51.544Z,102768.88
2022-10-17T19:24:20.808Z,102769.63
2022-10-17T19:26:50.192Z,102771.25
2022-10-17T19:29:18.560Z,102766.84
2022-10-17T19:31:47.764Z,102774.44
2022-10-17T19:34:17.280Z,102774.31
2022-10-17T19:36:46.604Z,102769.53
2022-10-17T19:39:17.161Z,102772.09
2022-10-17T19:41:48.148Z,102772.09
2022-10-17T19:44:16.205Z,102777.31
2022-10-17T19:46:44.359Z,102773.00
2022-10-17T19:49:13.404Z,102785.31
2022-10-17T19:51:41.300Z,102788.75
2022-10-17T19:54:09.443Z,102785.13
2022-10-17T19:56:41.016Z,102784.94
2022-10-17T19:59:11.534Z,102785.03
2022-10-17T20:01:39.998Z,102777.94
2022-10-17T20:04:09.133Z,102773.13
2022-10-17T20:06:37.744Z,102780.94
2022-10-17T20:09:07.337Z,102773.91
2022-10-17T20:11:38.098Z,102773.75
2022-10-17T20:14:07.359Z,102778.66
2022-10-17T20:16:36.398Z,102769.94
2022-10-17T20:19:05.898Z,102777.69
2022-10-17T20:21:34.211Z,102766.16
2022-10-17T20:24:04.214Z,102768.59
2022-10-17T20:26:38.026Z,102768.53
2022-10-17T20:29:11.708Z,102762.69
2022-10-17T20:31:41.755Z,102762.94
2022-10-17T20:34:11.803Z,102762.88
2022-10-17T20:36:41.616Z,102762.72
2022-10-17T20:39:11.432Z,102771.25
2022-10-17T20:41:40.384Z,102757.03
2022-10-17T20:44:09.923Z,102769.69
2022-10-17T20:46:44.831Z,102766.16
2022-10-17T20:49:18.016Z,102763.38
2022-10-17T20:51:46.091Z,102759.13
2022-10-17T20:54:13.695Z,102760.06
2022-10-17T20:56:41.519Z,102766.69
2022-10-17T20:59:14.677Z,102762.34
2022-10-17T21:01:42.846Z,102761.66
2022-10-17T21:04:40.318Z,102755.63
2022-10-17T21:06:58.544Z,102764.25
2022-10-17T21:09:26.380Z,102761.69
2022-10-17T21:11:55.248Z,102759.97
2022-10-17T21:14:25.758Z,102761.53
2022-10-17T21:16:55.208Z,102760.53
2022-10-17T21:19:22.795Z,102757.31
2022-10-17T21:21:50.914Z,102752.72
2022-10-17T21:24:18.752Z,102755.03
2022-10-17T21:26:48.090Z,102752.97
2022-10-17T21:29:16.624Z,102762.06
2022-10-17T21:31:45.726Z,102755.06
2022-10-17T21:34:14.514Z,102747.72
2022-10-17T21:36:43.257Z,102754.47
2022-10-17T21:39:12.732Z,102751.19
2022-10-17T21:41:40.973Z,102752.84
2022-10-17T21:44:12.843Z,102746.44
2022-10-17T21:46:40.942Z,102756.06
2022-10-17T21:49:12.139Z,102745.84
2022-10-17T21:51:40.499Z,102764.22
2022-10-17T21:54:08.678Z,102757.19
2022-10-17T21:56:37.264Z,102761.28
2022-10-17T21:59:09.462Z,102763.00
2022-10-17T22:01:39.692Z,102755.78
2022-10-17T22:04:10.395Z,102749.78
2022-10-17T22:06:44.307Z,102753.63
2022-10-17T22:09:15.081Z,102765.97
2022-10-17T22:11:46.613Z,102760.59
2022-10-17T22:14:16.763Z,102760.53
2022-10-17T22:16:44.756Z,102763.84
2022-10-17T22:19:14.890Z,102775.63
2022-10-17T22:21:45.565Z,102762.00
2022-10-17T22:24:14.935Z,102762.06
2022-10-17T22:26:43.269Z,102765.44
2022-10-17T22:29:13.191Z,102756.63
2022-10-17T22:31:41.912Z,102762.78
2022-10-17T22:34:12.368Z,102761.16
2022-10-17T22:36:40.576Z,102753.34
2022-10-17T22:39:10.457Z,102759.53
2022-10-17T22:41:38.044Z,102747.41
2022-10-17T22:44:06.422Z,102747.91
2022-10-17T22:46:34.041Z,102756.66
2022-10-17T22:49:01.605Z,102749.47
2022-10-17T22:51:29.252Z,102746.88
2022-10-17T22:53:57.214Z,102745.94
2022-10-17T22:56:26.187Z,102743.34
2022-10-17T22:58:54.177Z,102733.63
2022-10-17T23:01:26.115Z,102741.16
2022-10-17T23:03:54.322Z,102741.22
2022-10-17T23:06:22.500Z,102739.81
2022-10-17T23:08:50.375Z,102739.84
2022-10-17T23:11:18.675Z,102741.13
2022-10-17T23:13:48.658Z,102738.38
2022-10-17T23:16:16.218Z,102736.78
2022-10-17T23:18:46.166Z,102734.03
2022-10-17T23:21:13.941Z,102737.81
2022-10-17T23:23:41.748Z,102728.41
2022-10-17T23:26:13.220Z,102731.09
2022-10-17T23:28:42.694Z,102723.41
2022-10-17T23:31:15.109Z,102727.03
2022-10-17T23:33:44.608Z,102719.06
2022-10-17T23:36:15.094Z,102720.88
2022-10-17T23:38:44.457Z,102712.44
2022-10-17T23:41:12.893Z,102717.94
2022-10-17T23:43:43.528Z,102711.50
2022-10-17T23:46:13.114Z,102716.78
2022-10-17T23:48:42.788Z,102719.63
2022-10-17T23:51:11.248Z,102721.75
2022-10-17T23:53:40.538Z,102710.41
2022-10-17T23:56:09.468Z,102716.34
2022-10-17T23:58:38.468Z,102706.50
